sensor_id;sensor_type;location;lat;lon;timestamp;P1;durP1;ratioP1;P2;durP2;ratioP2
68577;SDS011;61668;45.388;11.784;2022-12-07T00:01:21;25.40;;;12.40;;
68577;SDS011;61668;45.388;11.784;2022-12-07T00:03:49;25.10;;;11.70;;
68577;SDS011;61668;45.388;11.784;2022-12-07T00:06:17;28.00;;;12.30;;
68577;SDS011;61668;45.388;11.784;2022-12-07T00:08:43;26.10;;;12.70;;
68577;SDS011;61668;45.388;11.784;2022-12-07T00:11:12;27.60;;;12.70;;
68577;SDS011;61668;45.388;11.784;2022-12-07T00:13:41;27.90;;;13.00;;
68577;SDS011;61668;45.388;11.784;2022-12-07T00:16:11;29.40;;;13.70;;
68577;SDS011;61668;45.388;11.784;2022-12-07T00:18:39;27.80;;;11.70;;
68577;SDS011;61668;45.388;11.784;2022-12-07T00:21:14;30.50;;;14.40;;
68577;SDS011;61668;45.388;11.784;2022-12-07T00:23:43;30.30;;;14.10;;
68577;SDS011;61668;45.388;11.784;2022-12-07T00:26:15;27.20;;;12.80;;
68577;SDS011;61668;45.388;11.784;2022-12-07T00:28:47;27.40;;;12.00;;
68577;SDS011;61668;45.388;11.784;2022-12-07T00:31:16;25.80;;;11.90;;
68577;SDS011;61668;45.388;11.784;2022-12-07T00:33:42;22.20;;;11.10;;
68577;SDS011;61668;45.388;11.784;2022-12-07T00:36:11;25.50;;;11.70;;
68577;SDS011;61668;45.388;11.784;2022-12-07T00:38:38;26.20;;;12.20;;
68577;SDS011;61668;45.388;11.784;2022-12-07T00:41:08;26.20;;;12.20;;
68577;SDS011;61668;45.388;11.784;2022-12-07T00:43:35;28.60;;;13.00;;
68577;SDS011;61668;45.388;11.784;2022-12-07T00:46:01;26.90;;;12.40;;
68577;SDS011;61668;45.388;11.784;2022-12-07T00:48:26;32.00;;;13.50;;
68577;SDS011;61668;45.388;11.784;2022-12-07T00:50:52;30.20;;;13.00;;
68577;SDS011;61668;45.388;11.784;2022-12-07T00:53:18;29.90;;;13.50;;
68577;SDS011;61668;45.388;11.784;2022-12-07T00:55:44;37.40;;;17.40;;
68577;SDS011;61668;45.388;11.784;2022-12-07T00:58:10;35.60;;;15.40;;
68577;SDS011;61668;45.388;11.784;2022-12-07T01:00:38;36.00;;;14.90;;
68577;SDS011;61668;45.388;11.784;2022-12-07T01:03:06;37.20;;;15.80;;
68577;SDS011;61668;45.388;11.784;2022-12-07T01:05:32;46.60;;;16.10;;
68577;SDS011;61668;45.388;11.784;2022-12-07T01:07:58;37.80;;;14.20;;
68577;SDS011;61668;45.388;11.784;2022-12-07T01:10:23;34.40;;;14.40;;
68577;SDS011;61668;45.388;11.784;2022-12-07T01:12:49;35.60;;;14.70;;
68577;SDS011;61668;45.388;11.784;2022-12-07T01:15:14;30.30;;;13.20;;
68577;SDS011;61668;45.388;11.784;2022-12-07T01:17:40;30.80;;;14.10;;
68577;SDS011;61668;45.388;11.784;2022-12-07T01:20:06;30.40;;;13.10;;
68577;SDS011;61668;45.388;11.784;2022-12-07T01:22:37;34.70;;;14.50;;
68577;SDS011;61668;45.388;11.784;2022-12-07T01:25:04;27.60;;;12.50;;
68577;SDS011;61668;45.388;11.784;2022-12-07T01:27:32;32.00;;;13.70;;
68577;SDS011;61668;45.388;11.784;2022-12-07T01:29:58;29.80;;;14.10;;
68577;SDS011;61668;45.388;11.784;2022-12-07T01:32:24;30.50;;;12.40;;
68577;SDS011;61668;45.388;11.784;2022-12-07T01:34:49;26.80;;;12.20;;
68577;SDS011;61668;45.388;11.784;2022-12-07T01:37:15;31.10;;;12.90;;
68577;SDS011;61668;45.388;11.784;2022-12-07T01:39:40;25.60;;;11.40;;
68577;SDS011;61668;45.388;11.784;2022-12-07T01:42:10;24.50;;;10.70;;
68577;SDS011;61668;45.388;11.784;2022-12-07T01:47:47;23.10;;;10.00;;
68577;SDS011;61668;45.388;11.784;2022-12-07T01:50:16;24.50;;;9.80;;
68577;SDS011;61668;45.388;11.784;2022-12-07T01:52:43;23.90;;;10.90;;
68577;SDS011;61668;45.388;11.784;2022-12-07T01:55:12;26.70;;;11.60;;
68577;SDS011;61668;45.388;11.784;2022-12-07T01:57:43;24.90;;;11.00;;
68577;SDS011;61668;45.388;11.784;2022-12-07T02:00:14;24.40;;;11.10;;
68577;SDS011;61668;45.388;11.784;2022-12-07T02:03:05;22.00;;;10.80;;
68577;SDS011;61668;45.388;11.784;2022-12-07T02:05:37;25.90;;;11.20;;
68577;SDS011;61668;45.388;11.784;2022-12-07T02:08:04;23.30;;;10.30;;
68577;SDS011;61668;45.388;11.784;2022-12-07T02:10:31;21.70;;;10.60;;
68577;SDS011;61668;45.388;11.784;2022-12-07T02:13:15;24.80;;;10.60;;
68577;SDS011;61668;45.388;11.784;2022-12-07T02:27:38;28.40;;;11.70;;
68577;SDS011;61668;45.388;11.784;2022-12-07T02:30:12;25.70;;;11.10;;
68577;SDS011;61668;45.388;11.784;2022-12-07T02:35:33;28.60;;;12.20;;
68577;SDS011;61668;45.388;11.784;2022-12-07T02:38:20;24.40;;;12.40;;
68577;SDS011;61668;45.388;11.784;2022-12-07T02:40:55;27.90;;;11.80;;
68577;SDS011;61668;45.388;11.784;2022-12-07T02:43:48;28.40;;;12.50;;
68577;SDS011;61668;45.388;11.784;2022-12-07T02:46:23;29.50;;;12.10;;
68577;SDS011;61668;45.388;11.784;2022-12-07T02:48:54;30.10;;;12.30;;
68577;SDS011;61668;45.388;11.784;2022-12-07T02:51:21;27.70;;;13.20;;
68577;SDS011;61668;45.388;11.784;2022-12-07T02:53:48;31.40;;;13.50;;
68577;SDS011;61668;45.388;11.784;2022-12-07T02:59:36;30.20;;;12.70;;
68577;SDS011;61668;45.388;11.784;2022-12-07T03:07:39;32.50;;;13.70;;
68577;SDS011;61668;45.388;11.784;2022-12-07T03:18:49;32.20;;;13.80;;
68577;SDS011;61668;45.388;11.784;2022-12-07T03:21:21;31.30;;;12.50;;
68577;SDS011;61668;45.388;11.784;2022-12-07T03:23:59;31.10;;;12.50;;
68577;SDS011;61668;45.388;11.784;2022-12-07T03:26:40;32.80;;;14.20;;
68577;SDS011;61668;45.388;11.784;2022-12-07T03:29:15;33.20;;;12.90;;
68577;SDS011;61668;45.388;11.784;2022-12-07T03:31:53;29.40;;;12.80;;
68577;SDS011;61668;45.388;11.784;2022-12-07T03:34:45;30.60;;;12.40;;
68577;SDS011;61668;45.388;11.784;2022-12-07T03:37:26;32.00;;;13.20;;
68577;SDS011;61668;45.388;11.784;2022-12-07T03:40:02;27.00;;;12.00;;
68577;SDS011;61668;45.388;11.784;2022-12-07T03:42:36;28.30;;;12.50;;
68577;SDS011;61668;45.388;11.784;2022-12-07T03:45:04;29.60;;;13.20;;
68577;SDS011;61668;45.388;11.784;2022-12-07T03:47:33;27.10;;;11.20;;
68577;SDS011;61668;45.388;11.784;2022-12-07T03:50:15;29.60;;;11.70;;
68577;SDS011;61668;45.388;11.784;2022-12-07T03:53:05;27.00;;;11.30;;
68577;SDS011;61668;45.388;11.784;2022-12-07T03:55:40;23.80;;;9.80;;
68577;SDS011;61668;45.388;11.784;2022-12-07T03:58:11;29.40;;;12.40;;
68577;SDS011;61668;45.388;11.784;2022-12-07T04:00:41;24.80;;;11.60;;
68577;SDS011;61668;45.388;11.784;2022-12-07T04:03:07;27.80;;;11.80;;
68577;SDS011;61668;45.388;11.784;2022-12-07T04:05:36;28.80;;;11.70;;
68577;SDS011;61668;45.388;11.784;2022-12-07T04:08:02;33.50;;;13.60;;
68577;SDS011;61668;45.388;11.784;2022-12-07T04:10:28;35.80;;;15.20;;
68577;SDS011;61668;45.388;11.784;2022-12-07T04:12:56;32.80;;;14.80;;
68577;SDS011;61668;45.388;11.784;2022-12-07T04:15:21;30.20;;;13.10;;
68577;SDS011;61668;45.388;11.784;2022-12-07T04:17:47;31.10;;;13.30;;
68577;SDS011;61668;45.388;11.784;2022-12-07T04:20:13;36.10;;;14.50;;
68577;SDS011;61668;45.388;11.784;2022-12-07T04:22:39;35.80;;;15.70;;
68577;SDS011;61668;45.388;11.784;2022-12-07T04:25:05;35.40;;;16.00;;
68577;SDS011;61668;45.388;11.784;2022-12-07T04:27:31;31.60;;;13.50;;
68577;SDS011;61668;45.388;11.784;2022-12-07T04:29:56;28.60;;;14.00;;
68577;SDS011;61668;45.388;11.784;2022-12-07T04:32:24;29.10;;;13.20;;
68577;SDS011;61668;45.388;11.784;2022-12-07T04:34:49;29.10;;;11.50;;
68577;SDS011;61668;45.388;11.784;2022-12-07T04:37:15;30.50;;;12.40;;
68577;SDS011;61668;45.388;11.784;2022-12-07T04:39:41;28.10;;;11.60;;
68577;SDS011;61668;45.388;11.784;2022-12-07T04:42:09;26.30;;;11.10;;
68577;SDS011;61668;45.388;11.784;2022-12-07T04:44:35;29.40;;;12.00;;
68577;SDS011;61668;45.388;11.784;2022-12-07T04:47:01;30.90;;;12.80;;
68577;SDS011;61668;45.388;11.784;2022-12-07T04:49:27;32.60;;;12.30;;
68577;SDS011;61668;45.388;11.784;2022-12-07T04:51:53;27.10;;;12.90;;
68577;SDS011;61668;45.388;11.784;2022-12-07T04:54:19;29.70;;;12.80;;
68577;SDS011;61668;45.388;11.784;2022-12-07T04:56:44;30.70;;;13.10;;
68577;SDS011;61668;45.388;11.784;2022-12-07T04:59:12;27.60;;;11.40;;
68577;SDS011;61668;45.388;11.784;2022-12-07T05:01:40;27.90;;;12.00;;
68577;SDS011;61668;45.388;11.784;2022-12-07T05:04:06;26.40;;;11.40;;
68577;SDS011;61668;45.388;11.784;2022-12-07T05:06:32;27.30;;;12.20;;
68577;SDS011;61668;45.388;11.784;2022-12-07T05:08:57;25.10;;;11.80;;
68577;SDS011;61668;45.388;11.784;2022-12-07T05:11:23;26.80;;;11.90;;
68577;SDS011;61668;45.388;11.784;2022-12-07T05:16:40;24.70;;;11.80;;
68577;SDS011;61668;45.388;11.784;2022-12-07T05:19:09;24.10;;;10.90;;
68577;SDS011;61668;45.388;11.784;2022-12-07T05:21:36;26.60;;;11.00;;
68577;SDS011;61668;45.388;11.784;2022-12-07T05:24:02;27.10;;;10.50;;
68577;SDS011;61668;45.388;11.784;2022-12-07T05:26:28;27.90;;;11.50;;
68577;SDS011;61668;45.388;11.784;2022-12-07T05:28:59;27.10;;;12.00;;
68577;SDS011;61668;45.388;11.784;2022-12-07T05:31:26;27.00;;;11.70;;
68577;SDS011;61668;45.388;11.784;2022-12-07T05:33:53;26.80;;;11.70;;
68577;SDS011;61668;45.388;11.784;2022-12-07T05:36:21;24.20;;;11.10;;
68577;SDS011;61668;45.388;11.784;2022-12-07T05:38:47;24.20;;;10.90;;
68577;SDS011;61668;45.388;11.784;2022-12-07T05:41:15;23.50;;;10.50;;
68577;SDS011;61668;45.388;11.784;2022-12-07T05:44:00;24.80;;;11.10;;
68577;SDS011;61668;45.388;11.784;2022-12-07T05:46:26;31.20;;;12.60;;
68577;SDS011;61668;45.388;11.784;2022-12-07T05:48:52;26.40;;;11.10;;
68577;SDS011;61668;45.388;11.784;2022-12-07T05:51:17;25.60;;;10.90;;
68577;SDS011;61668;45.388;11.784;2022-12-07T05:53:43;23.60;;;10.30;;
68577;SDS011;61668;45.388;11.784;2022-12-07T05:56:12;26.60;;;10.70;;
68577;SDS011;61668;45.388;11.784;2022-12-07T05:58:38;26.00;;;12.70;;
68577;SDS011;61668;45.388;11.784;2022-12-07T06:01:22;22.50;;;9.60;;
68577;SDS011;61668;45.388;11.784;2022-12-07T06:03:49;22.50;;;10.30;;
68577;SDS011;61668;45.388;11.784;2022-12-07T06:06:14;24.60;;;10.50;;
68577;SDS011;61668;45.388;11.784;2022-12-07T06:08:40;24.10;;;10.50;;
68577;SDS011;61668;45.388;11.784;2022-12-07T06:11:05;22.30;;;8.80;;
68577;SDS011;61668;45.388;11.784;2022-12-07T06:13:50;22.70;;;8.70;;
68577;SDS011;61668;45.388;11.784;2022-12-07T06:16:15;20.00;;;8.50;;
68577;SDS011;61668;45.388;11.784;2022-12-07T06:18:41;16.10;;;7.80;;
68577;SDS011;61668;45.388;11.784;2022-12-07T06:21:06;19.40;;;8.20;;
68577;SDS011;61668;45.388;11.784;2022-12-07T06:23:32;18.20;;;7.90;;
68577;SDS011;61668;45.388;11.784;2022-12-07T06:25:57;16.80;;;8.10;;
68577;SDS011;61668;45.388;11.784;2022-12-07T06:28:22;20.80;;;8.50;;
68577;SDS011;61668;45.388;11.784;2022-12-07T06:30:57;14.90;;;7.60;;
68577;SDS011;61668;45.388;11.784;2022-12-07T06:33:24;17.50;;;8.10;;
68577;SDS011;61668;45.388;11.784;2022-12-07T06:35:49;17.90;;;8.20;;
68577;SDS011;61668;45.388;11.784;2022-12-07T06:38:15;18.70;;;7.60;;
68577;SDS011;61668;45.388;11.784;2022-12-07T06:40:40;18.00;;;8.20;;
68577;SDS011;61668;45.388;11.784;2022-12-07T06:43:06;17.60;;;8.00;;
68577;SDS011;61668;45.388;11.784;2022-12-07T06:45:31;16.20;;;7.40;;
68577;SDS011;61668;45.388;11.784;2022-12-07T06:47:57;23.00;;;10.40;;
68577;SDS011;61668;45.388;11.784;2022-12-07T06:50:22;24.30;;;11.20;;
68577;SDS011;61668;45.388;11.784;2022-12-07T06:52:47;22.20;;;10.20;;
68577;SDS011;61668;45.388;11.784;2022-12-07T06:55:13;23.40;;;10.80;;
68577;SDS011;61668;45.388;11.784;2022-12-07T06:57:38;19.70;;;8.60;;
68577;SDS011;61668;45.388;11.784;2022-12-07T07:00:04;20.20;;;9.50;;
68577;SDS011;61668;45.388;11.784;2022-12-07T07:02:31;17.20;;;8.00;;
68577;SDS011;61668;45.388;11.784;2022-12-07T07:04:56;19.10;;;8.50;;
68577;SDS011;61668;45.388;11.784;2022-12-07T07:07:22;15.50;;;7.80;;
68577;SDS011;61668;45.388;11.784;2022-12-07T07:09:48;18.30;;;7.60;;
68577;SDS011;61668;45.388;11.784;2022-12-07T07:12:13;18.30;;;8.50;;
68577;SDS011;61668;45.388;11.784;2022-12-07T07:14:38;21.10;;;9.40;;
68577;SDS011;61668;45.388;11.784;2022-12-07T07:17:04;19.30;;;7.90;;
68577;SDS011;61668;45.388;11.784;2022-12-07T07:19:29;16.50;;;8.50;;
68577;SDS011;61668;45.388;11.784;2022-12-07T07:21:55;20.80;;;8.20;;
68577;SDS011;61668;45.388;11.784;2022-12-07T07:24:20;15.90;;;7.50;;
68577;SDS011;61668;45.388;11.784;2022-12-07T07:26:46;19.40;;;8.20;;
68577;SDS011;61668;45.388;11.784;2022-12-07T07:29:11;22.40;;;9.60;;
68577;SDS011;61668;45.388;11.784;2022-12-07T07:31:37;21.60;;;10.60;;
68577;SDS011;61668;45.388;11.784;2022-12-07T07:34:03;25.00;;;12.50;;
68577;SDS011;61668;45.388;11.784;2022-12-07T07:36:28;26.30;;;12.30;;
68577;SDS011;61668;45.388;11.784;2022-12-07T07:38:53;20.30;;;9.20;;
68577;SDS011;61668;45.388;11.784;2022-12-07T07:41:19;19.70;;;8.70;;
68577;SDS011;61668;45.388;11.784;2022-12-07T07:43:45;20.70;;;8.90;;
68577;SDS011;61668;45.388;11.784;2022-12-07T07:46:10;18.70;;;9.30;;
68577;SDS011;61668;45.388;11.784;2022-12-07T07:48:36;22.40;;;9.80;;
68577;SDS011;61668;45.388;11.784;2022-12-07T07:51:05;23.00;;;11.00;;
68577;SDS011;61668;45.388;11.784;2022-12-07T07:53:32;22.50;;;11.20;;
68577;SDS011;61668;45.388;11.784;2022-12-07T07:55:58;24.60;;;11.70;;
68577;SDS011;61668;45.388;11.784;2022-12-07T07:58:23;25.20;;;11.30;;
68577;SDS011;61668;45.388;11.784;2022-12-07T08:00:49;23.60;;;11.20;;
68577;SDS011;61668;45.388;11.784;2022-12-07T08:03:14;23.00;;;9.80;;
68577;SDS011;61668;45.388;11.784;2022-12-07T08:05:40;20.40;;;9.30;;
68577;SDS011;61668;45.388;11.784;2022-12-07T08:08:06;21.90;;;9.70;;
68577;SDS011;61668;45.388;11.784;2022-12-07T08:10:31;23.20;;;10.90;;
68577;SDS011;61668;45.388;11.784;2022-12-07T08:12:57;21.30;;;9.20;;
68577;SDS011;61668;45.388;11.784;2022-12-07T08:15:37;23.00;;;10.50;;
68577;SDS011;61668;45.388;11.784;2022-12-07T08:18:03;23.80;;;11.30;;
68577;SDS011;61668;45.388;11.784;2022-12-07T08:20:31;24.00;;;12.50;;
68577;SDS011;61668;45.388;11.784;2022-12-07T08:22:58;22.00;;;9.70;;
68577;SDS011;61668;45.388;11.784;2022-12-07T08:25:23;21.60;;;9.90;;
68577;SDS011;61668;45.388;11.784;2022-12-07T08:27:50;22.90;;;10.60;;
68577;SDS011;61668;45.388;11.784;2022-12-07T08:30:16;24.70;;;11.90;;
68577;SDS011;61668;45.388;11.784;2022-12-07T08:32:44;27.10;;;11.90;;
68577;SDS011;61668;45.388;11.784;2022-12-07T08:35:10;23.60;;;10.50;;
68577;SDS011;61668;45.388;11.784;2022-12-07T08:37:37;21.50;;;10.30;;
68577;SDS011;61668;45.388;11.784;2022-12-07T08:40:04;23.90;;;10.90;;
68577;SDS011;61668;45.388;11.784;2022-12-07T08:42:31;23.60;;;11.80;;
68577;SDS011;61668;45.388;11.784;2022-12-07T08:45:09;21.30;;;9.40;;
68577;SDS011;61668;45.388;11.784;2022-12-07T08:47:42;22.20;;;10.40;;
68577;SDS011;61668;45.388;11.784;2022-12-07T08:50:11;22.70;;;9.80;;
68577;SDS011;61668;45.388;11.784;2022-12-07T08:52:37;23.60;;;10.60;;
68577;SDS011;61668;45.388;11.784;2022-12-07T08:55:05;22.80;;;10.50;;
68577;SDS011;61668;45.388;11.784;2022-12-07T08:57:32;20.20;;;9.10;;
68577;SDS011;61668;45.388;11.784;2022-12-07T08:59:59;21.50;;;9.80;;
68577;SDS011;61668;45.388;11.784;2022-12-07T09:02:25;21.10;;;9.40;;
68577;SDS011;61668;45.388;11.784;2022-12-07T09:04:51;22.00;;;10.50;;
68577;SDS011;61668;45.388;11.784;2022-12-07T09:07:16;22.00;;;9.10;;
68577;SDS011;61668;45.388;11.784;2022-12-07T09:09:42;24.90;;;10.50;;
68577;SDS011;61668;45.388;11.784;2022-12-07T09:12:07;23.00;;;10.40;;
68577;SDS011;61668;45.388;11.784;2022-12-07T09:14:33;20.10;;;8.80;;
68577;SDS011;61668;45.388;11.784;2022-12-07T09:17:10;24.20;;;11.20;;
68577;SDS011;61668;45.388;11.784;2022-12-07T09:19:37;21.60;;;9.10;;
68577;SDS011;61668;45.388;11.784;2022-12-07T09:22:04;21.30;;;9.40;;
68577;SDS011;61668;45.388;11.784;2022-12-07T09:24:31;18.80;;;8.60;;
68577;SDS011;61668;45.388;11.784;2022-12-07T09:26:57;19.10;;;9.90;;
68577;SDS011;61668;45.388;11.784;2022-12-07T09:29:24;19.10;;;8.60;;
68577;SDS011;61668;45.388;11.784;2022-12-07T09:31:50;18.70;;;8.90;;
68577;SDS011;61668;45.388;11.784;2022-12-07T09:34:16;19.70;;;9.60;;
68577;SDS011;61668;45.388;11.784;2022-12-07T09:36:41;19.00;;;8.90;;
68577;SDS011;61668;45.388;11.784;2022-12-07T09:39:08;20.70;;;9.50;;
68577;SDS011;61668;45.388;11.784;2022-12-07T09:41:38;18.00;;;8.70;;
68577;SDS011;61668;45.388;11.784;2022-12-07T09:44:09;18.70;;;8.20;;
68577;SDS011;61668;45.388;11.784;2022-12-07T09:46:40;18.50;;;8.40;;
68577;SDS011;61668;45.388;11.784;2022-12-07T09:49:13;19.80;;;9.60;;
68577;SDS011;61668;45.388;11.784;2022-12-07T09:51:41;19.00;;;8.00;;
68577;SDS011;61668;45.388;11.784;2022-12-07T09:54:08;16.90;;;8.10;;
68577;SDS011;61668;45.388;11.784;2022-12-07T09:56:35;18.10;;;7.50;;
68577;SDS011;61668;45.388;11.784;2022-12-07T09:59:02;17.60;;;8.10;;
68577;SDS011;61668;45.388;11.784;2022-12-07T10:01:30;17.20;;;7.60;;
68577;SDS011;61668;45.388;11.784;2022-12-07T10:04:14;17.00;;;7.40;;
68577;SDS011;61668;45.388;11.784;2022-12-07T10:06:42;18.80;;;8.10;;
68577;SDS011;61668;45.388;11.784;2022-12-07T10:09:10;16.40;;;7.40;;
68577;SDS011;61668;45.388;11.784;2022-12-07T10:12:05;21.70;;;8.00;;
68577;SDS011;61668;45.388;11.784;2022-12-07T10:14:34;16.10;;;7.10;;
68577;SDS011;61668;45.388;11.784;2022-12-07T10:17:02;19.80;;;8.30;;
68577;SDS011;61668;45.388;11.784;2022-12-07T10:20:21;21.10;;;8.20;;
68577;SDS011;61668;45.388;11.784;2022-12-07T10:25:32;19.30;;;9.30;;
68577;SDS011;61668;45.388;11.784;2022-12-07T10:30:27;19.10;;;7.70;;
68577;SDS011;61668;45.388;11.784;2022-12-07T10:32:52;20.60;;;8.60;;
68577;SDS011;61668;45.388;11.784;2022-12-07T10:35:19;19.80;;;9.10;;
68577;SDS011;61668;45.388;11.784;2022-12-07T10:37:48;19.60;;;8.80;;
68577;SDS011;61668;45.388;11.784;2022-12-07T10:40:35;22.50;;;10.60;;
68577;SDS011;61668;45.388;11.784;2022-12-07T10:46:13;21.40;;;10.10;;
68577;SDS011;61668;45.388;11.784;2022-12-07T10:49:08;19.00;;;8.20;;
68577;SDS011;61668;45.388;11.784;2022-12-07T10:54:57;17.20;;;7.80;;
68577;SDS011;61668;45.388;11.784;2022-12-07T11:00:22;23.80;;;11.20;;
68577;SDS011;61668;45.388;11.784;2022-12-07T11:11:58;24.20;;;9.80;;
68577;SDS011;61668;45.388;11.784;2022-12-07T11:15:08;20.80;;;9.10;;
68577;SDS011;61668;45.388;11.784;2022-12-07T11:18:03;20.70;;;8.70;;
68577;SDS011;61668;45.388;11.784;2022-12-07T11:20:44;27.80;;;15.40;;
68577;SDS011;61668;45.388;11.784;2022-12-07T11:38:23;22.90;;;8.40;;
68577;SDS011;61668;45.388;11.784;2022-12-07T11:40:58;20.70;;;8.90;;
68577;SDS011;61668;45.388;11.784;2022-12-07T11:46:50;20.40;;;8.50;;
68577;SDS011;61668;45.388;11.784;2022-12-07T11:49:42;20.70;;;8.50;;
68577;SDS011;61668;45.388;11.784;2022-12-07T11:52:32;20.90;;;9.00;;
68577;SDS011;61668;45.388;11.784;2022-12-07T11:54:59;19.90;;;8.20;;
68577;SDS011;61668;45.388;11.784;2022-12-07T11:57:42;23.40;;;9.20;;
68577;SDS011;61668;45.388;11.784;2022-12-07T12:00:15;22.20;;;8.70;;
68577;SDS011;61668;45.388;11.784;2022-12-07T12:02:50;22.20;;;8.30;;
68577;SDS011;61668;45.388;11.784;2022-12-07T12:05:22;19.90;;;8.70;;
68577;SDS011;61668;45.388;11.784;2022-12-07T12:08:16;20.70;;;7.60;;
68577;SDS011;61668;45.388;11.784;2022-12-07T12:11:05;19.30;;;8.80;;
68577;SDS011;61668;45.388;11.784;2022-12-07T12:20:13;20.30;;;8.30;;
68577;SDS011;61668;45.388;11.784;2022-12-07T12:23:21;20.60;;;7.70;;
68577;SDS011;61668;45.388;11.784;2022-12-07T12:26:21;26.50;;;13.30;;
68577;SDS011;61668;45.388;11.784;2022-12-07T12:29:00;17.40;;;7.40;;
68577;SDS011;61668;45.388;11.784;2022-12-07T12:33:58;17.70;;;7.50;;
68577;SDS011;61668;45.388;11.784;2022-12-07T12:39:18;18.10;;;7.40;;
68577;SDS011;61668;45.388;11.784;2022-12-07T12:46:46;19.50;;;8.00;;
68577;SDS011;61668;45.388;11.784;2022-12-07T12:54:31;14.80;;;6.30;;
68577;SDS011;61668;45.388;11.784;2022-12-07T13:12:59;13.70;;;5.90;;
68577;SDS011;61668;45.388;11.784;2022-12-07T13:15:49;13.30;;;5.20;;
68577;SDS011;61668;45.388;11.784;2022-12-07T13:24:01;15.90;;;6.60;;
68577;SDS011;61668;45.388;11.784;2022-12-07T13:26:38;14.70;;;5.70;;
68577;SDS011;61668;45.388;11.784;2022-12-07T13:31:57;22.70;;;8.50;;
68577;SDS011;61668;45.388;11.784;2022-12-07T13:34:40;16.40;;;6.50;;
68577;SDS011;61668;45.388;11.784;2022-12-07T13:37:27;16.50;;;7.00;;
68577;SDS011;61668;45.388;11.784;2022-12-07T13:39:56;17.60;;;6.80;;
68577;SDS011;61668;45.388;11.784;2022-12-07T13:42:34;14.80;;;6.80;;
68577;SDS011;61668;45.388;11.784;2022-12-07T13:45:23;17.40;;;7.40;;
68577;SDS011;61668;45.388;11.784;2022-12-07T13:48:49;13.10;;;5.40;;
68577;SDS011;61668;45.388;11.784;2022-12-07T13:51:22;16.70;;;6.50;;
68577;SDS011;61668;45.388;11.784;2022-12-07T13:54:10;14.70;;;6.40;;
68577;SDS011;61668;45.388;11.784;2022-12-07T13:56:37;16.40;;;6.40;;
68577;SDS011;61668;45.388;11.784;2022-12-07T13:59:16;15.60;;;6.30;;
68577;SDS011;61668;45.388;11.784;2022-12-07T14:01:48;16.10;;;5.70;;
68577;SDS011;61668;45.388;11.784;2022-12-07T14:04:19;14.50;;;6.10;;
68577;SDS011;61668;45.388;11.784;2022-12-07T14:06:56;14.40;;;5.00;;
68577;SDS011;61668;45.388;11.784;2022-12-07T14:09:24;14.10;;;5.90;;
68577;SDS011;61668;45.388;11.784;2022-12-07T14:11:53;16.40;;;6.00;;
68577;SDS011;61668;45.388;11.784;2022-12-07T14:14:22;13.60;;;5.10;;
68577;SDS011;61668;45.388;11.784;2022-12-07T14:17:16;14.50;;;5.60;;
68577;SDS011;61668;45.388;11.784;2022-12-07T14:19:50;17.30;;;6.20;;
68577;SDS011;61668;45.388;11.784;2022-12-07T14:22:28;15.40;;;5.60;;
68577;SDS011;61668;45.388;11.784;2022-12-07T14:25:21;13.90;;;5.50;;
68577;SDS011;61668;45.388;11.784;2022-12-07T14:27:57;13.50;;;5.20;;
68577;SDS011;61668;45.388;11.784;2022-12-07T14:30:29;14.20;;;5.80;;
68577;SDS011;61668;45.388;11.784;2022-12-07T14:32:59;15.10;;;5.70;;
68577;SDS011;61668;45.388;11.784;2022-12-07T14:35:27;15.50;;;6.00;;
68577;SDS011;61668;45.388;11.784;2022-12-07T14:37:53;14.40;;;5.80;;
68577;SDS011;61668;45.388;11.784;2022-12-07T14:40:27;17.20;;;6.70;;
68577;SDS011;61668;45.388;11.784;2022-12-07T14:43:01;16.30;;;5.70;;
68577;SDS011;61668;45.388;11.784;2022-12-07T14:45:28;15.50;;;6.70;;
68577;SDS011;61668;45.388;11.784;2022-12-07T14:47:54;15.60;;;6.40;;
68577;SDS011;61668;45.388;11.784;2022-12-07T14:50:20;15.10;;;6.50;;
68577;SDS011;61668;45.388;11.784;2022-12-07T14:53:00;17.10;;;7.60;;
68577;SDS011;61668;45.388;11.784;2022-12-07T14:55:31;16.00;;;6.60;;
68577;SDS011;61668;45.388;11.784;2022-12-07T14:57:58;16.20;;;7.50;;
68577;SDS011;61668;45.388;11.784;2022-12-07T15:00:25;24.00;;;9.30;;
68577;SDS011;61668;45.388;11.784;2022-12-07T15:02:52;19.00;;;8.30;;
68577;SDS011;61668;45.388;11.784;2022-12-07T15:05:18;43.80;;;18.70;;
68577;SDS011;61668;45.388;11.784;2022-12-07T15:07:45;20.00;;;8.60;;
68577;SDS011;61668;45.388;11.784;2022-12-07T15:10:20;21.80;;;9.90;;
68577;SDS011;61668;45.388;11.784;2022-12-07T15:12:47;19.40;;;8.40;;
68577;SDS011;61668;45.388;11.784;2022-12-07T15:15:13;18.40;;;7.80;;
68577;SDS011;61668;45.388;11.784;2022-12-07T15:17:38;19.30;;;8.20;;
68577;SDS011;61668;45.388;11.784;2022-12-07T15:20:07;23.00;;;9.10;;
68577;SDS011;61668;45.388;11.784;2022-12-07T15:22:42;22.60;;;9.70;;
68577;SDS011;61668;45.388;11.784;2022-12-07T15:25:09;22.90;;;9.70;;
68577;SDS011;61668;45.388;11.784;2022-12-07T15:27:38;21.00;;;9.70;;
68577;SDS011;61668;45.388;11.784;2022-12-07T15:30:04;24.00;;;9.60;;
68577;SDS011;61668;45.388;11.784;2022-12-07T15:32:30;21.40;;;9.30;;
68577;SDS011;61668;45.388;11.784;2022-12-07T15:34:55;21.00;;;9.50;;
68577;SDS011;61668;45.388;11.784;2022-12-07T15:37:21;22.50;;;10.50;;
68577;SDS011;61668;45.388;11.784;2022-12-07T15:39:46;21.10;;;9.60;;
68577;SDS011;61668;45.388;11.784;2022-12-07T15:42:12;26.10;;;10.90;;
68577;SDS011;61668;45.388;11.784;2022-12-07T15:44:37;24.00;;;11.00;;
68577;SDS011;61668;45.388;11.784;2022-12-07T15:47:21;25.20;;;11.30;;
68577;SDS011;61668;45.388;11.784;2022-12-07T15:49:47;22.10;;;10.00;;
68577;SDS011;61668;45.388;11.784;2022-12-07T15:52:12;27.30;;;11.50;;
68577;SDS011;61668;45.388;11.784;2022-12-07T15:54:38;25.70;;;11.00;;
68577;SDS011;61668;45.388;11.784;2022-12-07T15:57:03;26.10;;;10.90;;
68577;SDS011;61668;45.388;11.784;2022-12-07T15:59:29;26.80;;;12.00;;
68577;SDS011;61668;45.388;11.784;2022-12-07T16:01:55;24.60;;;12.50;;
68577;SDS011;61668;45.388;11.784;2022-12-07T16:04:22;30.10;;;13.80;;
68577;SDS011;61668;45.388;11.784;2022-12-07T16:06:51;27.10;;;14.00;;
68577;SDS011;61668;45.388;11.784;2022-12-07T16:09:17;29.80;;;12.70;;
68577;SDS011;61668;45.388;11.784;2022-12-07T16:11:43;27.00;;;13.60;;
68577;SDS011;61668;45.388;11.784;2022-12-07T16:14:08;31.00;;;13.80;;
68577;SDS011;61668;45.388;11.784;2022-12-07T16:16:34;27.30;;;13.60;;
68577;SDS011;61668;45.388;11.784;2022-12-07T16:18:59;28.50;;;12.40;;
68577;SDS011;61668;45.388;11.784;2022-12-07T16:21:25;27.90;;;13.40;;
68577;SDS011;61668;45.388;11.784;2022-12-07T16:23:50;30.80;;;14.80;;
68577;SDS011;61668;45.388;11.784;2022-12-07T16:26:18;28.00;;;13.70;;
68577;SDS011;61668;45.388;11.784;2022-12-07T16:28:45;26.10;;;12.40;;
68577;SDS011;61668;45.388;11.784;2022-12-07T16:31:15;35.40;;;15.20;;
68577;SDS011;61668;45.388;11.784;2022-12-07T16:33:43;32.30;;;15.10;;
68577;SDS011;61668;45.388;11.784;2022-12-07T16:36:11;32.70;;;15.80;;
68577;SDS011;61668;45.388;11.784;2022-12-07T16:38:38;33.50;;;15.70;;